Time;durP1;ratioP1;P1;durP2;ratioP2;P2;SDS_P1;SDS_P2;PMS_P1;PMS_P2;Temp;Humidity;BMP_temperature;BMP_pressure;BME280_temperature;BME280_humidity;BME280_pressure;Samples;Min_cycle;Max_cycle;Signal;HPM_P1;HPM_P2
2021/03/12 00:02:04;;;;;;;;;;;4.30;98.00;;;;;;5118551;28;19912;-69
2021/03/12 00:04:29;;;;;;;;;;;4.40;98.00;;;;;;5118536;28;19915;-69
2021/03/12 00:06:55;;;;;;;;;;;4.40;98.00;;;;;;5118647;27;19966;-69
2021/03/12 00:09:20;;;;;;;;;;;4.40;98.00;;;;;;5118591;28;19908;-69
2021/03/12 00:11:46;;;;;;;;;;;4.40;98.00;;;;;;5116057;28;20033;-69
2021/03/12 00:14:11;;;;;;;;;;;4.40;98.00;;;;;;5109070;28;19954;-68
2021/03/12 00:16:37;;;;;;;;;;;4.30;98.00;;;;;;5105126;28;19951;-67
2021/03/12 00:19:03;;;;;;;;;;;4.30;98.00;;;;;;5118921;28;19915;-69
2021/03/12 00:21:31;;;;;;;;;;;4.30;98.00;;;;;;5117838;28;19915;-69
2021/03/12 00:23:57;;;;;;;;;;;4.30;98.00;;;;;;5100315;28;19940;-69
2021/03/12 00:26:23;;;;;;;;;;;4.30;98.00;;;;;;5099776;28;20198;-69
2021/03/12 00:28:51;;;;;;;;;;;4.20;98.00;;;;;;5118004;28;20154;-69
2021/03/12 00:31:16;;;;;;;;;;;4.20;98.00;;;;;;5116903;28;20291;-69
2021/03/12 00:33:45;;;;;;;;;;;4.20;98.00;;;;;;5099853;28;19947;-67
2021/03/12 00:36:10;;;;;;;;;;;4.20;98.00;;;;;;5118102;28;19912;-67
2021/03/12 00:38:39;;;;;;;;;;;4.20;98.00;;;;;;5117783;28;19965;-68
2021/03/12 00:41:05;;;;;;;;;;;4.30;98.00;;;;;;5117735;28;20007;-67
2021/03/12 00:43:31;;;;;;;;;;;4.30;98.00;;;;;;5116022;28;19992;-69
2021/03/12 00:45:59;;;;;;;;;;;4.30;98.00;;;;;;5098184;28;20327;-69
2021/03/12 00:48:24;;;;;;;;;;;4.30;98.00;;;;;;5117606;28;19965;-67
2021/03/12 00:50:50;;;;;;;;;;;4.40;98.00;;;;;;5117534;28;19923;-67
2021/03/12 00:53:16;;;;;;;;;;;4.40;98.00;;;;;;5117876;28;19984;-66
2021/03/12 00:55:41;;;;;;;;;;;4.40;98.00;;;;;;5112618;27;19951;-68
2021/03/12 00:58:09;;;;;;;;;;;4.40;98.00;;;;;;5112483;28;19911;-69
2021/03/12 01:00:36;;;;;;;;;;;4.40;98.00;;;;;;5116090;28;19920;-69
2021/03/12 01:03:06;;;;;;;;;;;4.40;98.00;;;;;;5118297;27;19918;-69
2021/03/12 01:05:31;;;;;;;;;;;4.40;98.00;;;;;;5097565;28;19912;-69
2021/03/12 01:07:57;;;;;;;;;;;4.40;98.00;;;;;;5117317;28;19916;-68
2021/03/12 01:10:26;;;;;;;;;;;4.40;98.00;;;;;;5115983;28;20006;-69
2021/03/12 01:12:52;;;;;;;;;;;4.50;98.00;;;;;;5117227;28;20015;-69
2021/03/12 01:15:18;;;;;;;;;;;4.50;98.00;;;;;;5115843;28;20665;-69
2021/03/12 01:17:44;;;;;;;;;;;4.50;98.00;;;;;;5117095;28;19916;-69
2021/03/12 01:20:15;;;;;;;;;;;4.40;98.00;;;;;;5099058;28;19915;-69
2021/03/12 01:22:40;;;;;;;;;;;4.40;98.00;;;;;;5116946;28;20307;-69
2021/03/12 01:25:10;;;;;;;;;;;4.40;98.00;;;;;;5111418;28;19947;-69
2021/03/12 01:27:38;;;;;;;;;;;4.40;98.00;;;;;;5107818;28;19965;-68
2021/03/12 01:30:12;;;;;;;;;;;4.40;98.00;;;;;;5115402;28;19994;-70
2021/03/12 01:32:37;;;;;;;;;;;4.40;98.00;;;;;;5115810;28;19944;-69
2021/03/12 01:35:03;;;;;;;;;;;4.40;98.00;;;;;;5116701;28;19947;-70
2021/03/12 01:37:29;;;;;;;;;;;4.30;98.00;;;;;;5116711;28;19938;-69
2021/03/12 01:39:54;;;;;;;;;;;4.30;98.00;;;;;;5116900;28;19973;-69
2021/03/12 01:42:20;;;;;;;;;;;4.30;98.00;;;;;;5116516;28;19916;-69
2021/03/12 01:44:45;;;;;;;;;;;4.30;98.00;;;;;;5115415;28;20513;-69
2021/03/12 01:47:11;;;;;;;;;;;4.20;98.00;;;;;;5116463;28;19911;-69
2021/03/12 01:49:36;;;;;;;;;;;4.20;98.00;;;;;;5116667;28;20020;-69
2021/03/12 01:52:03;;;;;;;;;;;4.20;98.00;;;;;;5111783;28;20365;-69
2021/03/12 01:54:28;;;;;;;;;;;4.20;98.00;;;;;;5116218;28;19930;-69
2021/03/12 01:56:54;;;;;;;;;;;4.10;98.00;;;;;;5118349;27;20212;-69
2021/03/12 01:59:19;;;;;;;;;;;4.10;98.00;;;;;;5116525;28;19916;-69
2021/03/12 02:01:45;;;;;;;;;;;4.10;98.00;;;;;;5106505;28;19913;-69
2021/03/12 02:04:10;;;;;;;;;;;4.00;98.00;;;;;;5078536;28;20196;-68
2021/03/12 02:06:36;;;;;;;;;;;4.00;98.00;;;;;;5081877;28;20500;-69
2021/03/12 02:09:02;;;;;;;;;;;4.10;98.00;;;;;;5098556;28;19939;-69
2021/03/12 02:11:27;;;;;;;;;;;4.00;98.00;;;;;;5081315;28;19916;-69
2021/03/12 02:13:53;;;;;;;;;;;4.00;98.00;;;;;;5098051;28;19916;-69
2021/03/12 02:16:40;;;;;;;;;;;4.00;98.00;;;;;;5102288;28;19927;-69
2021/03/12 02:19:08;;;;;;;;;;;4.00;98.00;;;;;;5077784;28;19916;-69
2021/03/12 02:22:06;;;;;;;;;;;4.10;98.00;;;;;;5063301;28;20202;-68
2021/03/12 02:24:36;;;;;;;;;;;4.10;98.00;;;;;;5042294;28;19913;-69
2021/03/12 02:27:07;;;;;;;;;;;4.10;98.00;;;;;;5066669;28;19958;-69
2021/03/12 02:29:33;;;;;;;;;;;4.20;98.00;;;;;;5085098;28;19920;-69
2021/03/12 02:32:01;;;;;;;;;;;4.20;98.00;;;;;;5094228;28;19965;-68
2021/03/12 02:34:29;;;;;;;;;;;4.30;98.00;;;;;;5095648;28;19974;-69
2021/03/12 02:36:56;;;;;;;;;;;4.30;98.00;;;;;;5081038;28;19912;-68
2021/03/12 02:39:23;;;;;;;;;;;4.30;98.00;;;;;;5086168;28;19912;-68
2021/03/12 02:41:48;;;;;;;;;;;4.30;98.00;;;;;;5077969;28;20002;-69
2021/03/12 02:44:15;;;;;;;;;;;4.20;98.00;;;;;;5097025;28;20288;-69
2021/03/12 02:46:42;;;;;;;;;;;4.20;98.00;;;;;;5070412;28;19913;-69
2021/03/12 02:49:09;;;;;;;;;;;4.20;98.00;;;;;;5087797;28;19916;-68
2021/03/12 02:51:35;;;;;;;;;;;4.10;98.00;;;;;;5091687;28;20260;-68
2021/03/12 02:54:01;;;;;;;;;;;4.10;98.00;;;;;;5099464;28;19916;-69
2021/03/12 02:56:27;;;;;;;;;;;4.10;98.00;;;;;;5098796;28;19939;-68
2021/03/12 02:58:53;;;;;;;;;;;4.10;98.00;;;;;;5098648;28;19912;-68
2021/03/12 03:01:19;;;;;;;;;;;4.20;98.00;;;;;;5089804;28;19916;-69
2021/03/12 03:03:46;;;;;;;;;;;4.20;98.00;;;;;;5092309;28;19912;-68
2021/03/12 03:06:11;;;;;;;;;;;4.20;98.00;;;;;;5098818;28;19962;-69
2021/03/12 03:08:38;;;;;;;;;;;4.20;98.00;;;;;;5085897;28;19916;-69
2021/03/12 03:11:08;;;;;;;;;;;4.20;98.00;;;;;;5069862;28;20225;-69
2021/03/12 03:13:38;;;;;;;;;;;4.20;98.00;;;;;;5098961;28;19982;-69
2021/03/12 03:16:05;;;;;;;;;;;4.20;98.00;;;;;;5101469;28;19926;-69
2021/03/12 03:18:32;;;;;;;;;;;4.20;98.00;;;;;;5118119;28;19916;-69
2021/03/12 03:21:00;;;;;;;;;;;4.20;98.00;;;;;;5087426;28;19942;-68
2021/03/12 03:23:25;;;;;;;;;;;4.20;98.00;;;;;;5119586;28;19953;-68
2021/03/12 03:25:51;;;;;;;;;;;4.20;98.00;;;;;;5118575;28;20246;-67
2021/03/12 03:28:16;;;;;;;;;;;4.10;98.00;;;;;;5118395;28;20268;-67
2021/03/12 03:30:42;;;;;;;;;;;4.00;98.00;;;;;;5098116;28;19916;-68
2021/03/12 03:33:08;;;;;;;;;;;4.00;98.00;;;;;;5112139;28;19926;-68
2021/03/12 03:35:33;;;;;;;;;;;4.00;98.00;;;;;;5083156;28;19916;-67
2021/03/12 03:37:59;;;;;;;;;;;4.00;98.00;;;;;;5104651;28;20477;-67
2021/03/12 03:40:24;;;;;;;;;;;4.00;98.00;;;;;;5112816;28;19912;-67
2021/03/12 03:42:51;;;;;;;;;;;4.00;98.00;;;;;;5117079;28;20242;-69
2021/03/12 03:45:18;;;;;;;;;;;4.00;98.00;;;;;;5116339;28;19918;-68
2021/03/12 03:47:44;;;;;;;;;;;4.00;98.00;;;;;;5112595;28;19915;-68
2021/03/12 03:50:10;;;;;;;;;;;4.00;98.00;;;;;;5117501;28;19920;-69
2021/03/12 03:52:38;;;;;;;;;;;3.90;98.00;;;;;;5118965;28;19912;-69
2021/03/12 03:55:06;;;;;;;;;;;3.90;97.90;;;;;;5117736;28;19912;-68
2021/03/12 03:57:31;;;;;;;;;;;3.90;98.00;;;;;;5118632;28;19915;-69
2021/03/12 03:59:58;;;;;;;;;;;3.90;97.80;;;;;;5111005;28;19912;-68
2021/03/12 04:02:29;;;;;;;;;;;3.90;97.50;;;;;;5115829;28;19968;-69
2021/03/12 04:04:55;;;;;;;;;;;3.90;97.40;;;;;;5099693;28;19916;-69
2021/03/12 04:07:21;;;;;;;;;;;3.80;97.20;;;;;;5115736;28;20223;-69
2021/03/12 04:09:47;;;;;;;;;;;3.70;97.30;;;;;;5118073;28;19911;-68
2021/03/12 04:12:13;;;;;;;;;;;3.70;97.30;;;;;;5118507;28;19981;-69
2021/03/12 04:14:40;;;;;;;;;;;3.60;97.20;;;;;;5099048;28;19927;-69
2021/03/12 04:17:06;;;;;;;;;;;3.70;96.90;;;;;;5118019;28;19919;-68
2021/03/12 04:19:31;;;;;;;;;;;3.70;97.00;;;;;;5118316;28;20243;-68
2021/03/12 04:21:57;;;;;;;;;;;3.60;96.80;;;;;;5117972;28;19912;-68
2021/03/12 04:24:23;;;;;;;;;;;3.60;96.80;;;;;;5118328;28;19977;-68
2021/03/12 04:26:48;;;;;;;;;;;3.60;96.90;;;;;;5084836;28;19922;-69
2021/03/12 04:29:15;;;;;;;;;;;3.60;97.20;;;;;;5116625;27;19918;-69
2021/03/12 04:31:41;;;;;;;;;;;3.60;97.30;;;;;;5114332;28;19923;-69
2021/03/12 04:34:06;;;;;;;;;;;3.60;97.50;;;;;;5100050;28;19907;-68
2021/03/12 04:36:32;;;;;;;;;;;3.60;97.60;;;;;;5117708;28;19938;-69
2021/03/12 04:38:58;;;;;;;;;;;3.50;97.50;;;;;;5117895;28;19958;-69
2021/03/12 04:41:23;;;;;;;;;;;3.50;97.60;;;;;;5103997;28;19920;-69
2021/03/12 04:43:49;;;;;;;;;;;3.40;97.80;;;;;;5098758;28;19919;-69
2021/03/12 04:46:18;;;;;;;;;;;3.30;97.90;;;;;;5115052;28;20216;-69
2021/03/12 04:48:44;;;;;;;;;;;3.30;98.00;;;;;;5117417;28;19943;-69
2021/03/12 04:51:11;;;;;;;;;;;3.30;98.00;;;;;;5112507;28;19916;-69
2021/03/12 04:53:38;;;;;;;;;;;3.30;98.00;;;;;;5088876;28;20296;-69
2021/03/12 04:56:04;;;;;;;;;;;3.30;98.00;;;;;;5117133;28;19916;-68
2021/03/12 04:58:30;;;;;;;;;;;3.30;98.00;;;;;;5115404;28;19920;-69
2021/03/12 05:00:55;;;;;;;;;;;3.30;98.00;;;;;;5112012;28;19918;-69
2021/03/12 05:03:21;;;;;;;;;;;3.30;98.00;;;;;;5114183;28;19911;-69
2021/03/12 05:05:47;;;;;;;;;;;3.30;98.00;;;;;;5108424;28;20227;-70
2021/03/12 05:08:13;;;;;;;;;;;3.30;98.00;;;;;;5105569;28;19912;-69
2021/03/12 05:10:49;;;;;;;;;;;3.30;98.00;;;;;;5116252;27;19916;-69
2021/03/12 05:13:15;;;;;;;;;;;3.30;98.00;;;;;;5116900;28;19912;-69
2021/03/12 05:15:40;;;;;;;;;;;3.40;97.70;;;;;;5097044;28;19927;-69
2021/03/12 05:18:06;;;;;;;;;;;3.30;97.40;;;;;;5092270;28;19919;-69
2021/03/12 05:20:31;;;;;;;;;;;3.30;97.60;;;;;;5115326;28;20418;-69
2021/03/12 05:22:57;;;;;;;;;;;3.30;98.00;;;;;;5108202;28;19912;-69
2021/03/12 05:25:22;;;;;;;;;;;3.20;98.00;;;;;;5105933;28;19908;-69
2021/03/12 05:27:48;;;;;;;;;;;3.10;98.00;;;;;;5116230;28;19968;-69
2021/03/12 05:30:13;;;;;;;;;;;3.10;98.00;;;;;;5114980;28;20237;-69
2021/03/12 05:32:40;;;;;;;;;;;3.00;98.00;;;;;;5116921;28;19912;-69
2021/03/12 05:35:08;;;;;;;;;;;3.00;98.00;;;;;;5105886;28;19916;-69
2021/03/12 05:37:34;;;;;;;;;;;3.00;98.00;;;;;;5097818;28;19908;-69
2021/03/12 05:40:00;;;;;;;;;;;3.10;98.00;;;;;;5104033;28;20020;-69
2021/03/12 05:42:25;;;;;;;;;;;3.10;97.90;;;;;;5112341;28;19914;-69
2021/03/12 05:44:52;;;;;;;;;;;3.10;97.80;;;;;;5079835;28;19936;-68
2021/03/12 05:47:18;;;;;;;;;;;3.20;97.90;;;;;;5088233;28;19957;-69
2021/03/12 05:49:44;;;;;;;;;;;3.10;97.90;;;;;;5110108;28;19919;-69
2021/03/12 05:52:11;;;;;;;;;;;3.00;97.90;;;;;;5116424;28;20006;-70
2021/03/12 05:54:36;;;;;;;;;;;3.00;98.00;;;;;;5114860;28;20014;-69
2021/03/12 05:57:02;;;;;;;;;;;3.10;98.00;;;;;;5112744;28;19985;-69
2021/03/12 05:59:28;;;;;;;;;;;3.20;97.60;;;;;;5113916;28;20359;-68
2021/03/12 06:01:54;;;;;;;;;;;3.30;97.40;;;;;;5091723;28;19908;-69
2021/03/12 06:04:19;;;;;;;;;;;3.40;96.50;;;;;;5115577;28;20013;-69
2021/03/12 06:06:45;;;;;;;;;;;3.40;95.80;;;;;;5108932;28;20308;-69
2021/03/12 06:09:10;;;;;;;;;;;3.50;95.50;;;;;;5115954;28;19916;-69
2021/03/12 06:11:36;;;;;;;;;;;3.50;95.40;;;;;;5106818;28;19924;-69
2021/03/12 06:14:01;;;;;;;;;;;3.60;95.10;;;;;;5115858;28;19915;-69
2021/03/12 06:16:28;;;;;;;;;;;3.60;94.40;;;;;;5114599;28;19930;-69
2021/03/12 06:19:12;;;;;;;;;;;3.60;94.50;;;;;;5116016;28;19923;-69
2021/03/12 06:21:38;;;;;;;;;;;3.60;94.20;;;;;;5088252;28;19961;-68
2021/03/12 06:24:22;;;;;;;;;;;3.70;94.10;;;;;;5116006;28;19918;-68
2021/03/12 06:26:48;;;;;;;;;;;3.70;93.90;;;;;;5112960;28;19907;-67
2021/03/12 06:29:13;;;;;;;;;;;3.60;93.90;;;;;;5116218;28;19912;-67
2021/03/12 06:31:48;;;;;;;;;;;3.50;94.70;;;;;;5114261;28;19919;-66
2021/03/12 06:34:13;;;;;;;;;;;3.60;94.40;;;;;;5114800;28;19916;-69
2021/03/12 06:36:42;;;;;;;;;;;3.70;94.20;;;;;;5116172;28;19915;-69
2021/03/12 06:39:08;;;;;;;;;;;3.70;95.00;;;;;;5115669;28;19916;-69
2021/03/12 06:41:36;;;;;;;;;;;3.50;95.70;;;;;;5097839;28;19912;-69
2021/03/12 06:44:20;;;;;;;;;;;3.40;96.70;;;;;;5115341;28;19915;-69
2021/03/12 06:46:46;;;;;;;;;;;2.90;97.60;;;;;;5098876;28;20304;-70
2021/03/12 06:49:11;;;;;;;;;;;2.50;98.00;;;;;;5116088;28;19952;-69
2021/03/12 06:51:51;;;;;;;;;;;2.30;98.00;;;;;;5115834;28;19916;-68
2021/03/12 06:54:17;;;;;;;;;;;2.30;98.00;;;;;;5113539;28;19915;-69
2021/03/12 06:56:42;;;;;;;;;;;2.30;98.00;;;;;;5115367;28;20022;-69
2021/03/12 06:59:08;;;;;;;;;;;2.30;98.00;;;;;;5115918;28;20291;-69
2021/03/12 07:01:33;;;;;;;;;;;2.30;98.00;;;;;;5113711;28;20304;-69
2021/03/12 07:04:08;;;;;;;;;;;2.40;98.00;;;;;;5115852;28;19912;-69
2021/03/12 07:06:44;;;;;;;;;;;2.70;98.00;;;;;;5115474;28;20014;-69
2021/03/12 07:09:09;;;;;;;;;;;2.90;98.00;;;;;;5096677;28;19931;-68
2021/03/12 07:11:35;;;;;;;;;;;3.10;98.00;;;;;;5102059;28;20091;-69
2021/03/12 07:14:00;;;;;;;;;;;3.20;98.00;;;;;;5097985;28;19973;-69
2021/03/12 07:16:26;;;;;;;;;;;3.30;98.00;;;;;;5113684;28;19920;-69
2021/03/12 07:18:53;;;;;;;;;;;3.30;98.00;;;;;;5114174;28;19956;-69
2021/03/12 07:21:21;;;;;;;;;;;3.20;98.00;;;;;;5105714;28;19916;-69
2021/03/12 07:23:51;;;;;;;;;;;3.10;98.00;;;;;;5115641;28;19912;-69
2021/03/12 07:26:17;;;;;;;;;;;3.10;98.00;;;;;;5115406;28;19919;-69
2021/03/12 07:28:44;;;;;;;;;;;3.20;98.00;;;;;;5115171;28;20338;-69
2021/03/12 07:31:10;;;;;;;;;;;3.50;98.00;;;;;;5115132;28;20312;-69
2021/03/12 07:33:36;;;;;;;;;;;3.80;96.70;;;;;;5119376;28;19912;-69
2021/03/12 07:36:05;;;;;;;;;;;4.10;95.80;;;;;;5119526;28;19931;-69
2021/03/12 07:38:32;;;;;;;;;;;4.30;94.90;;;;;;5118735;28;19916;-69
2021/03/12 07:40:58;;;;;;;;;;;4.50;95.00;;;;;;5116116;28;20207;-69
2021/03/12 07:43:24;;;;;;;;;;;4.80;94.10;;;;;;5097406;28;20007;-68
2021/03/12 07:45:50;;;;;;;;;;;4.80;93.10;;;;;;5107614;28;19912;-68
2021/03/12 07:48:16;;;;;;;;;;;4.70;92.80;;;;;;5118953;28;19965;-69
2021/03/12 07:50:42;;;;;;;;;;;4.70;93.30;;;;;;5117919;28;19915;-70
2021/03/12 07:53:08;;;;;;;;;;;4.80;93.20;;;;;;5130786;27;19980;-68
2021/03/12 07:55:37;;;;;;;;;;;5.00;92.40;;;;;;5125132;27;20002;-69
2021/03/12 07:58:02;;;;;;;;;;;5.00;92.30;;;;;;5118506;28;19999;-69
2021/03/12 08:00:28;;;;;;;;;;;5.10;93.10;;;;;;5117246;28;20288;-69
2021/03/12 08:02:54;;;;;;;;;;;5.20;91.60;;;;;;5118157;28;19912;-69
2021/03/12 08:05:30;;;;;;;;;;;5.20;92.10;;;;;;5118381;28;19919;-69
2021/03/12 08:07:56;;;;;;;;;;;5.10;92.00;;;;;;5118621;28;19918;-69
2021/03/12 08:10:22;;;;;;;;;;;5.20;92.70;;;;;;5118170;28;20006;-69
2021/03/12 08:12:49;;;;;;;;;;;5.00;91.10;;;;;;5100805;28;19926;-69
2021/03/12 08:15:17;;;;;;;;;;;4.90;91.90;;;;;;5116933;28;19953;-69
2021/03/12 08:17:43;;;;;;;;;;;4.80;92.70;;;;;;5117705;28;19916;-69
2021/03/12 08:20:28;;;;;;;;;;;4.80;93.70;;;;;;5117771;28;19960;-69
2021/03/12 08:22:55;;;;;;;;;;;4.80;93.80;;;;;;5118475;28;19942;-68
2021/03/12 08:25:36;;;;;;;;;;;4.90;94.50;;;;;;5113881;28;19908;-69
2021/03/12 08:28:07;;;;;;;;;;;5.00;94.60;;;;;;5112502;28;19937;-69
2021/03/12 08:30:36;;;;;;;;;;;5.10;93.10;;;;;;5107236;28;19955;-69
2021/03/12 08:33:20;;;;;;;;;;;5.20;92.70;;;;;;5097585;28;19908;-67
2021/03/12 08:35:45;;;;;;;;;;;5.20;91.60;;;;;;5112348;28;19912;-69
2021/03/12 08:38:11;;;;;;;;;;;5.20;91.30;;;;;;5109570;28;19953;-69
2021/03/12 08:40:52;;;;;;;;;;;5.20;92.40;;;;;;5115466;28;19926;-69
2021/03/12 08:43:20;;;;;;;;;;;5.30;92.00;;;;;;5116624;27;19915;-69
2021/03/12 08:45:52;;;;;;;;;;;5.10;91.60;;;;;;5098222;28;19916;-69
2021/03/12 08:48:19;;;;;;;;;;;5.20;92.30;;;;;;5120331;27;20010;-67
2021/03/12 08:50:53;;;;;;;;;;;5.40;91.40;;;;;;5108177;28;19947;-67
2021/03/12 08:53:20;;;;;;;;;;;5.50;91.30;;;;;;5109111;28;19923;-67
2021/03/12 08:55:47;;;;;;;;;;;5.50;91.30;;;;;;5107497;28;19955;-68
2021/03/12 08:58:17;;;;;;;;;;;5.40;91.40;;;;;;5115919;28;19927;-68
2021/03/12 09:00:46;;;;;;;;;;;5.30;92.20;;;;;;5111592;28;19908;-69
2021/03/12 09:03:27;;;;;;;;;;;6.00;91.50;;;;;;5099068;28;19966;-68
2021/03/12 09:05:54;;;;;;;;;;;7.30;88.20;;;;;;5106594;27;19911;-69
2021/03/12 09:08:27;;;;;;;;;;;7.50;85.90;;;;;;5115711;28;19989;-69
2021/03/12 09:10:53;;;;;;;;;;;7.40;85.90;;;;;;5111279;28;20304;-70
2021/03/12 09:13:23;;;;;;;;;;;8.10;84.00;;;;;;5116454;28;19920;-69
2021/03/12 09:15:49;;;;;;;;;;;7.70;81.80;;;;;;5109513;27;19981;-68
2021/03/12 09:18:18;;;;;;;;;;;7.20;83.10;;;;;;5106042;28;20393;-67
2021/03/12 09:20:47;;;;;;;;;;;7.20;84.20;;;;;;5107825;28;19908;-68
2021/03/12 09:23:13;;;;;;;;;;;7.90;82.80;;;;;;5113269;28;19915;-68
2021/03/12 09:25:39;;;;;;;;;;;7.80;82.00;;;;;;5108914;28;19911;-67
2021/03/12 09:28:07;;;;;;;;;;;7.60;82.90;;;;;;5110712;28;20235;-67
2021/03/12 09:30:37;;;;;;;;;;;7.60;83.10;;;;;;5115158;28;19915;-68
2021/03/12 09:33:03;;;;;;;;;;;7.30;81.50;;;;;;5116175;28;19999;-68
2021/03/12 09:35:29;;;;;;;;;;;7.00;80.90;;;;;;5097649;28;19908;-68
2021/03/12 09:37:57;;;;;;;;;;;6.90;82.60;;;;;;5092092;28;19923;-68
2021/03/12 09:40:30;;;;;;;;;;;6.70;80.60;;;;;;5114546;28;20232;-68
2021/03/12 11:40:10;;;;;;;;;;;7.00;79.60;;;;;;5024909;28;20390;-68
2021/03/12 11:42:37;;;;;;;;;;;6.60;81.60;;;;;;5050559;28;19939;-68
2021/03/12 11:45:03;;;;;;;;;;;5.90;87.90;;;;;;5040639;28;19917;-69
2021/03/12 11:47:29;;;;;;;;;;;5.10;92.20;;;;;;5038327;28;20277;-69
2021/03/12 11:49:56;;;;;;;;;;;4.50;94.90;;;;;;5039406;28;19947;-68
2021/03/12 11:52:27;;;;;;;;;;;4.50;96.70;;;;;;5039403;28;20342;-68
2021/03/12 11:54:54;;;;;;;;;;;4.50;96.40;;;;;;5021847;28;20309;-67
2021/03/12 11:57:20;;;;;;;;;;;4.70;96.40;;;;;;5042647;28;20317;-67
2021/03/12 11:59:46;;;;;;;;;;;5.10;96.30;;;;;;5040773;28;20317;-69
2021/03/12 12:02:12;;;;;;;;;;;5.40;95.40;;;;;;5052617;28;20017;-68
2021/03/12 12:04:37;;;;;;;;;;;5.50;94.60;;;;;;5052560;28;19913;-68
2021/03/12 12:07:03;;;;;;;;;;;6.10;95.00;;;;;;5044142;28;20198;-68
2021/03/12 12:09:28;;;;;;;;;;;7.10;92.30;;;;;;5036967;28;19921;-68
2021/03/12 12:11:54;;;;;;;;;;;7.60;89.20;;;;;;5038811;28;19983;-69
2021/03/12 12:14:21;;;;;;;;;;;7.50;89.40;;;;;;5051204;28;19955;-68
2021/03/12 12:16:47;;;;;;;;;;;7.80;86.70;;;;;;5049968;28;19920;-69
2021/03/12 12:19:14;;;;;;;;;;;7.60;86.00;;;;;;5033895;28;19932;-68
2021/03/12 12:21:40;;;;;;;;;;;7.90;85.40;;;;;;5047713;28;19996;-68
2021/03/12 12:24:06;;;;;;;;;;;8.30;82.90;;;;;;5026379;28;19917;-68
2021/03/12 12:26:32;;;;;;;;;;;8.40;83.80;;;;;;5037392;28;19916;-67
2021/03/12 12:28:59;;;;;;;;;;;8.90;79.50;;;;;;5045700;28;20234;-68
2021/03/12 12:31:24;;;;;;;;;;;8.80;78.20;;;;;;5044996;28;19925;-68
2021/03/12 12:33:50;;;;;;;;;;;8.80;76.30;;;;;;5047115;28;19928;-67
2021/03/12 12:36:15;;;;;;;;;;;8.70;75.60;;;;;;5043607;28;19928;-68
2021/03/12 12:38:41;;;;;;;;;;;9.20;77.30;;;;;;5042847;28;20012;-67
2021/03/12 12:41:06;;;;;;;;;;;9.40;73.00;;;;;;5048092;28;19936;-68
2021/03/12 12:43:32;;;;;;;;;;;9.20;73.20;;;;;;5042534;28;19917;-66
2021/03/12 12:45:57;;;;;;;;;;;9.30;73.80;;;;;;5037994;28;20000;-68
2021/03/12 12:48:23;;;;;;;;;;;9.30;72.30;;;;;;5051114;28;19913;-68
2021/03/12 12:50:49;;;;;;;;;;;9.40;73.00;;;;;;5040223;28;19921;-68
2021/03/12 12:53:14;;;;;;;;;;;10.00;70.90;;;;;;5034372;28;20602;-68
2021/03/12 12:55:40;;;;;;;;;;;9.70;70.50;;;;;;5049519;28;20395;-68
2021/03/12 12:58:05;;;;;;;;;;;9.20;70.30;;;;;;5054189;28;19915;-68
2021/03/12 13:00:32;;;;;;;;;;;8.60;72.20;;;;;;5049494;28;19912;-67
2021/03/12 13:02:58;;;;;;;;;;;8.40;73.60;;;;;;5053655;28;19943;-68
2021/03/12 13:05:24;;;;;;;;;;;8.20;74.00;;;;;;5052460;28;19947;-68
2021/03/12 13:07:50;;;;;;;;;;;8.00;73.20;;;;;;5054247;28;19919;-68
2021/03/12 13:10:15;;;;;;;;;;;7.90;74.60;;;;;;5054001;28;19920;-69
2021/03/12 13:12:41;;;;;;;;;;;7.80;74.80;;;;;;5037846;28;19949;-69
2021/03/12 13:15:07;;;;;;;;;;;7.70;75.40;;;;;;5052580;28;19927;-69
2021/03/12 13:17:33;;;;;;;;;;;8.00;74.50;;;;;;5043103;28;19948;-69
2021/03/12 13:19:59;;;;;;;;;;;8.20;73.20;;;;;;5049055;28;19960;-68
2021/03/12 13:22:25;;;;;;;;;;;8.30;71.50;;;;;;5052746;28;19951;-69
2021/03/12 13:24:52;;;;;;;;;;;8.60;72.10;;;;;;5038020;28;20193;-68
2021/03/12 13:27:17;;;;;;;;;;;8.70;70.60;;;;;;5033298;28;20255;-68
2021/03/12 13:29:43;;;;;;;;;;;8.80;69.90;;;;;;5039704;28;19913;-68
2021/03/12 13:32:09;;;;;;;;;;;8.50;69.40;;;;;;5052212;28;20027;-68
2021/03/12 13:34:35;;;;;;;;;;;8.90;70.10;;;;;;5046968;28;19929;-68
2021/03/12 13:37:00;;;;;;;;;;;9.00;69.70;;;;;;5033548;28;19924;-68
2021/03/12 13:39:26;;;;;;;;;;;9.20;70.20;;;;;;5038147;28;19917;-68
2021/03/12 13:41:52;;;;;;;;;;;8.80;69.50;;;;;;5047573;28;19924;-69
2021/03/12 13:44:21;;;;;;;;;;;8.80;69.90;;;;;;5051418;28;19913;-68
2021/03/12 13:46:46;;;;;;;;;;;9.10;69.30;;;;;;5052622;28;19913;-68
2021/03/12 13:49:12;;;;;;;;;;;9.00;69.40;;;;;;5053105;28;19920;-68
2021/03/12 13:51:37;;;;;;;;;;;9.00;69.20;;;;;;5052429;28;19921;-68
2021/03/12 13:54:03;;;;;;;;;;;8.70;68.80;;;;;;5052259;28;19912;-68
2021/03/12 13:56:29;;;;;;;;;;;8.90;69.70;;;;;;5053209;28;19948;-67
2021/03/12 13:58:54;;;;;;;;;;;9.20;68.90;;;;;;5049957;28;19936;-68
2021/03/12 14:01:20;;;;;;;;;;;9.20;69.00;;;;;;5051691;28;19924;-68
2021/03/12 14:03:45;;;;;;;;;;;8.80;69.40;;;;;;5051292;28;19925;-68
2021/03/12 14:06:11;;;;;;;;;;;8.80;70.70;;;;;;5053217;28;19920;-68
2021/03/12 14:08:37;;;;;;;;;;;9.30;69.70;;;;;;5053102;28;19913;-67
2021/03/12 14:11:02;;;;;;;;;;;9.70;69.00;;;;;;5052262;28;19979;-67
2021/03/12 14:13:28;;;;;;;;;;;10.10;68.70;;;;;;5041815;28;19963;-67
2021/03/12 14:15:53;;;;;;;;;;;10.50;67.90;;;;;;5031716;28;19909;-67
2021/03/12 14:18:19;;;;;;;;;;;10.20;65.50;;;;;;5032990;28;19994;-67
2021/03/12 14:20:44;;;;;;;;;;;9.50;65.90;;;;;;5050790;28;20398;-68
2021/03/12 14:23:13;;;;;;;;;;;8.90;67.30;;;;;;5053329;28;19920;-68
2021/03/12 14:25:38;;;;;;;;;;;8.70;68.30;;;;;;5054845;28;20297;-68
2021/03/12 14:28:04;;;;;;;;;;;8.60;69.10;;;;;;5055504;28;19912;-69
2021/03/12 14:30:29;;;;;;;;;;;8.50;70.70;;;;;;5053455;28;19952;-67
2021/03/12 14:32:55;;;;;;;;;;;8.40;69.80;;;;;;5045924;28;19962;-68
2021/03/12 14:35:20;;;;;;;;;;;8.30;70.70;;;;;;5048509;28;19937;-68
2021/03/12 14:37:46;;;;;;;;;;;8.30;70.90;;;;;;5055339;28;19962;-68
2021/03/12 14:40:13;;;;;;;;;;;8.40;71.20;;;;;;5073572;28;19955;-70
2021/03/12 14:42:39;;;;;;;;;;;8.50;71.10;;;;;;5059758;28;20003;-68
2021/03/12 14:45:05;;;;;;;;;;;8.60;71.20;;;;;;5048312;28;20373;-68
2021/03/12 14:47:31;;;;;;;;;;;8.80;69.70;;;;;;5039832;28;19913;-68
2021/03/12 14:49:56;;;;;;;;;;;9.00;69.50;;;;;;5039767;28;19963;-68
2021/03/12 14:52:22;;;;;;;;;;;9.20;69.50;;;;;;5039536;28;19975;-68
2021/03/12 14:54:47;;;;;;;;;;;9.00;70.90;;;;;;5046753;28;20323;-68
2021/03/12 14:57:13;;;;;;;;;;;8.60;70.60;;;;;;5058937;28;19909;-68
2021/03/12 14:59:38;;;;;;;;;;;8.30;71.30;;;;;;5058112;28;19909;-67
2021/03/12 15:02:04;;;;;;;;;;;8.10;71.10;;;;;;5059365;28;19908;-68
2021/03/12 15:04:29;;;;;;;;;;;8.00;72.50;;;;;;5054560;28;19919;-68
2021/03/12 15:06:55;;;;;;;;;;;8.00;74.20;;;;;;5039395;28;19949;-69
2021/03/12 15:09:20;;;;;;;;;;;7.80;75.90;;;;;;5039548;28;19948;-68
2021/03/12 15:11:46;;;;;;;;;;;7.40;78.70;;;;;;5038006;28;19967;-68
2021/03/12 15:14:11;;;;;;;;;;;7.30;79.80;;;;;;5040279;28;19923;-69
2021/03/12 15:16:37;;;;;;;;;;;7.30;80.30;;;;;;5058968;28;19916;-68
2021/03/12 15:19:02;;;;;;;;;;;7.40;80.70;;;;;;5059221;28;19909;-68
2021/03/12 15:21:28;;;;;;;;;;;7.30;81.10;;;;;;5057894;28;19952;-68
2021/03/12 15:23:55;;;;;;;;;;;7.40;81.70;;;;;;5059025;28;19913;-68
2021/03/12 15:26:20;;;;;;;;;;;7.40;82.30;;;;;;5057981;28;20313;-67
2021/03/12 15:28:46;;;;;;;;;;;7.10;83.10;;;;;;5058450;28;19998;-68
2021/03/12 15:31:12;;;;;;;;;;;7.00;84.90;;;;;;5056084;28;19916;-68
2021/03/12 15:33:37;;;;;;;;;;;6.90;86.90;;;;;;5058819;28;19954;-68
2021/03/12 15:36:04;;;;;;;;;;;6.80;88.40;;;;;;5058421;28;19982;-68
2021/03/12 15:38:30;;;;;;;;;;;7.40;88.30;;;;;;5054250;28;19913;-69
2021/03/12 15:40:56;;;;;;;;;;;7.90;85.90;;;;;;5054973;28;19928;-69
2021/03/12 15:43:22;;;;;;;;;;;8.50;84.50;;;;;;5054220;28;20217;-69
2021/03/12 15:45:48;;;;;;;;;;;8.90;82.70;;;;;;5056836;28;19912;-69
2021/03/12 15:48:13;;;;;;;;;;;8.80;79.80;;;;;;5071593;28;19920;-68
2021/03/12 15:50:39;;;;;;;;;;;8.10;81.50;;;;;;5038555;28;19917;-69
2021/03/12 15:53:04;;;;;;;;;;;8.30;81.20;;;;;;5038856;28;19936;-68
2021/03/12 15:55:29;;;;;;;;;;;8.80;80.60;;;;;;5055179;28;19913;-69
2021/03/12 15:57:55;;;;;;;;;;;8.90;78.10;;;;;;5044620;28;19913;-68
2021/03/12 16:00:21;;;;;;;;;;;8.70;78.90;;;;;;5047153;28;19920;-69
2021/03/12 16:02:46;;;;;;;;;;;9.00;78.50;;;;;;5045828;28;19948;-68
2021/03/12 16:05:13;;;;;;;;;;;9.10;77.40;;;;;;5041511;28;19940;-68
2021/03/12 16:07:39;;;;;;;;;;;9.60;77.20;;;;;;5055557;28;19982;-69
2021/03/12 16:10:05;;;;;;;;;;;9.40;74.80;;;;;;5056800;28;19972;-69
2021/03/12 16:12:31;;;;;;;;;;;9.00;76.00;;;;;;5042912;28;19944;-68
2021/03/12 16:14:56;;;;;;;;;;;8.90;76.80;;;;;;5043129;28;19914;-69
2021/03/12 16:17:22;;;;;;;;;;;8.60;77.20;;;;;;5039228;28;19913;-67
2021/03/12 16:19:47;;;;;;;;;;;8.50;76.90;;;;;;5054759;28;20309;-67
2021/03/12 16:22:13;;;;;;;;;;;8.60;76.40;;;;;;5049696;28;19974;-68
2021/03/12 16:24:38;;;;;;;;;;;8.80;74.10;;;;;;5037771;28;19929;-68
2021/03/12 16:27:04;;;;;;;;;;;9.00;71.70;;;;;;5037937;28;19963;-68